Time;durP1;ratioP1;P1;durP2;ratioP2;P2;SDS_P1;SDS_P2;PMS_P1;PMS_P2;Temp;Humidity;BMP_temperature;BMP_pressure;BME280_temperature;BME280_humidity;BME280_pressure;Samples;Min_cycle;Max_cycle;Signal;HPM_P1;HPM_P2
2023/08/19 00:01:25;;;;;;;17.80;14.52;;;;;;;20.77;95.76;100170.03;4945568;28;20050;-85
2023/08/19 00:03:54;;;;;;;18.90;14.02;;;;;;;20.74;96.00;100175.78;4912629;28;20046;-78
2023/08/19 00:06:39;;;;;;;15.50;13.40;;;;;;;20.79;96.20;100195.09;4941532;28;20042;-85
2023/08/19 00:09:08;;;;;;;16.17;13.13;;;;;;;20.74;96.29;100175.78;4944516;28;20501;-78
2023/08/19 00:11:36;;;;;;;24.42;14.68;;;;;;;20.71;96.11;100204.03;4931423;28;20413;-81
2023/08/19 00:14:03;;;;;;;15.50;13.23;;;;;;;20.72;95.90;100167.81;4958793;28;20563;-80
2023/08/19 00:16:30;;;;;;;16.95;12.70;;;;;;;20.68;95.24;100161.00;4949303;28;20061;-75
2023/08/19 00:18:57;;;;;;;16.58;12.85;;;;;;;20.67;94.88;100192.66;4939200;28;20065;-77
2023/08/19 00:21:24;;;;;;;15.93;12.60;;;;;;;20.64;94.49;100167.78;4937417;28;20054;-69
2023/08/19 00:23:50;;;;;;;16.92;12.73;;;;;;;20.65;94.19;100169.47;4958743;28;20051;-73
2023/08/19 00:26:20;;;;;;;18.58;13.02;;;;;;;20.65;94.15;100164.88;4941081;28;20042;-72
2023/08/19 00:28:45;;;;;;;14.98;13.05;;;;;;;20.62;93.72;100170.63;4935361;28;20054;-70
2023/08/19 00:31:16;;;;;;;14.52;12.35;;;;;;;20.60;93.05;100185.34;4919869;28;20058;-74
2023/08/19 00:33:46;;;;;;;17.15;13.52;;;;;;;20.56;92.84;100167.69;4936501;28;20062;-77
2023/08/19 00:39:06;;;;;;;16.05;12.77;;;;;;;20.57;93.07;100163.97;4934954;28;20054;-73
2023/08/19 00:41:33;;;;;;;14.75;12.88;;;;;;;20.54;93.23;100170.56;4935078;28;20077;-72
2023/08/19 00:44:03;;;;;;;15.68;12.68;;;;;;;20.53;93.58;100171.59;4918584;28;20054;-70
2023/08/19 00:46:30;;;;;;;17.42;13.38;;;;;;;20.51;94.09;100186.31;4934864;28;20042;-72
2023/08/19 00:49:00;;;;;;;13.98;12.48;;;;;;;20.50;94.60;100169.22;4940407;28;20062;-71
2023/08/19 00:51:29;;;;;;;18.55;12.75;;;;;;;20.49;94.95;100151.25;4923883;28;20046;-72
2023/08/19 00:56:47;;;;;;;15.68;12.75;;;;;;;20.45;95.19;100144.44;4932861;28;20081;-71
2023/08/19 00:59:12;;;;;;;16.67;13.82;;;;;;;20.44;95.13;100112.09;4955086;28;20413;-72
2023/08/19 01:01:39;;;;;;;15.18;13.27;;;;;;;20.45;94.84;100151.72;4940271;28;20062;-72
2023/08/19 01:04:05;;;;;;;17.58;14.27;;;;;;;20.44;94.79;100152.72;4938412;28;20405;-77
2023/08/19 01:07:19;;;;;;;14.85;12.85;;;;;;;20.46;94.74;100148.84;4945466;28;20039;-72
2023/08/19 01:10:21;;;;;;;20.52;13.70;;;;;;;20.43;93.81;100154.59;4886789;29;20051;-71
2023/08/19 01:13:24;;;;;;;16.38;12.95;;;;;;;20.41;93.66;100140.38;4884851;29;20059;-78
2023/08/19 01:15:55;;;;;;;15.98;13.85;;;;;;;20.39;93.59;100171.34;4845918;29;20068;-76
2023/08/19 01:18:25;;;;;;;17.83;13.93;;;;;;;20.34;93.41;100152.81;4843549;29;20452;-76
2023/08/19 01:20:52;;;;;;;16.00;13.00;;;;;;;20.32;93.54;100146.69;4829613;29;20136;-80
2023/08/19 01:23:32;;;;;;;20.50;13.68;;;;;;;20.32;93.89;100152.13;4829304;29;20052;-73
2023/08/19 01:25:59;;;;;;;19.05;13.45;;;;;;;20.28;93.66;100154.31;4844162;29;20527;-78
2023/08/19 01:28:26;;;;;;;14.23;12.70;;;;;;;20.26;93.77;100147.34;4814896;29;20052;-83
2023/08/19 01:31:22;;;;;;;17.40;12.88;;;;;;;20.30;94.46;100154.16;4845769;29;20061;-80
2023/08/19 01:33:48;;;;;;;15.68;13.55;;;;;;;20.21;94.57;100149.69;4842950;29;20061;-82
2023/08/19 01:36:44;;;;;;;14.27;12.43;;;;;;;20.18;95.26;100115.66;4832617;29;20049;-81
2023/08/19 01:39:36;;;;;;;18.50;12.20;;;;;;;20.23;95.84;100163.91;4815237;29;20079;-81
2023/08/19 01:42:06;;;;;;;13.93;12.18;;;;;;;20.13;95.79;100160.47;4883884;29;20183;-76
2023/08/19 01:45:03;;;;;;;17.23;12.77;;;;;;;20.12;96.13;100165.03;4894380;29;20394;-78
2023/08/19 01:47:30;;;;;;;16.40;14.32;;;;;;;20.13;96.68;100165.88;4885329;29;20525;-76
2023/08/19 01:50:00;;;;;;;16.90;12.65;;;;;;;20.12;97.04;100153.34;4939484;28;20065;-79
2023/08/19 01:52:26;;;;;;;17.35;12.57;;;;;;;20.15;97.24;100163.88;4928220;28;20061;-80
2023/08/19 01:54:52;;;;;;;18.90;13.45;;;;;;;20.16;97.41;100160.16;4916027;28;20508;-82
2023/08/19 01:57:17;;;;;;;18.65;14.25;;;;;;;20.19;97.50;100171.53;4936275;28;20054;-84
2023/08/19 01:59:46;;;;;;;18.50;14.43;;;;;;;20.21;97.66;100152.38;4934429;28;20046;-84
2023/08/19 02:02:12;;;;;;;15.88;13.15;;;;;;;20.21;97.16;100161.34;4925200;28;20065;-77
2023/08/19 02:04:37;;;;;;;16.77;14.13;;;;;;;20.21;96.96;100163.22;4960524;28;20034;-78
2023/08/19 02:07:02;;;;;;;16.02;13.27;;;;;;;20.21;96.46;100168.63;4923275;28;20529;-80
2023/08/19 02:09:29;;;;;;;18.25;13.25;;;;;;;20.20;96.59;100159.66;4947431;28;20058;-80
2023/08/19 02:11:54;;;;;;;20.23;13.50;;;;;;;20.19;95.58;100171.53;4956279;28;20057;-81
2023/08/19 02:14:24;;;;;;;17.15;13.40;;;;;;;20.15;95.91;100177.41;4935906;28;20046;-76
2023/08/19 02:16:50;;;;;;;17.30;14.13;;;;;;;20.13;95.85;100166.72;4958584;28;20396;-78
2023/08/19 02:19:24;;;;;;;18.98;14.60;;;;;;;20.12;96.38;100167.72;4958628;28;20042;-81
2023/08/19 02:21:50;;;;;;;15.30;12.55;;;;;;;20.13;96.58;100174.00;4930168;28;20501;-80
2023/08/19 02:24:16;;;;;;;17.52;13.25;;;;;;;20.10;96.83;100158.06;4958077;28;20924;-80
2023/08/19 02:26:42;;;;;;;18.33;13.55;;;;;;;20.09;96.82;100127.44;4930090;28;20057;-84
2023/08/19 02:29:08;;;;;;;15.27;13.05;;;;;;;20.10;96.44;100167.03;4941584;28;20057;-81
2023/08/19 02:31:36;;;;;;;18.02;13.70;;;;;;;20.10;96.53;100152.63;4931489;28;20050;-82
2023/08/19 02:34:01;;;;;;;20.38;13.85;;;;;;;20.10;96.56;100193.25;4932876;28;20063;-81
2023/08/19 02:36:27;;;;;;;16.23;14.15;;;;;;;20.11;96.58;100205.78;4924679;28;20051;-81
2023/08/19 02:38:54;;;;;;;17.85;13.98;;;;;;;20.13;97.11;100172.13;4921187;28;20050;-81
2023/08/19 02:41:25;;;;;;;24.80;14.80;;;;;;;20.17;97.10;100197.03;4952953;28;20050;-79
2023/08/19 02:43:51;;;;;;;16.15;13.57;;;;;;;20.20;97.33;100199.44;4938777;28;20047;-78
2023/08/19 02:46:17;;;;;;;18.27;13.05;;;;;;;20.22;97.40;100171.19;4937356;28;20420;-78
2023/08/19 02:48:42;;;;;;;19.30;14.98;;;;;;;20.26;97.37;100183.41;4939612;28;20064;-77
2023/08/19 02:51:07;;;;;;;17.67;14.35;;;;;;;20.29;97.00;100184.94;4922458;28;20402;-76
2023/08/19 02:53:35;;;;;;;16.77;13.23;;;;;;;20.33;96.66;100199.00;4936863;28;20432;-75
2023/08/19 02:56:05;;;;;;;17.08;13.57;;;;;;;20.36;96.31;100190.59;4921245;28;20039;-72
2023/08/19 02:58:37;;;;;;;22.83;16.50;;;;;;;20.39;95.62;100209.25;4922369;28;20354;-72
2023/08/19 03:01:04;;;;;;;17.55;13.07;;;;;;;20.42;95.55;100185.41;4923289;28;20058;-75
2023/08/19 03:03:30;;;;;;;20.65;14.75;;;;;;;20.49;94.85;100188.31;4936390;28;20460;-73
2023/08/19 03:05:59;;;;;;;19.02;14.30;;;;;;;20.52;94.46;100188.88;4922020;28;20046;-76
2023/08/19 03:08:27;;;;;;;18.67;14.45;;;;;;;20.58;94.25;100209.03;4962020;28;20061;-75
2023/08/19 03:10:58;;;;;;;17.00;12.98;;;;;;;20.65;93.98;100183.00;4941549;28;20046;-74
2023/08/19 03:13:30;;;;;;;17.88;14.38;;;;;;;20.74;93.87;100183.91;4955162;28;20100;-74
2023/08/19 03:16:01;;;;;;;16.92;13.50;;;;;;;20.84;93.27;100196.31;4956905;28;20053;-73
2023/08/19 03:18:29;;;;;;;21.02;14.65;;;;;;;20.95;93.12;100195.19;4953013;28;20054;-75
2023/08/19 03:20:59;;;;;;;16.52;14.13;;;;;;;21.03;92.84;100193.34;4936519;28;20050;-75
2023/08/19 03:23:28;;;;;;;18.65;12.95;;;;;;;21.17;92.37;100193.75;4936772;28;20417;-75
2023/08/19 03:25:56;;;;;;;18.70;14.95;;;;;;;21.27;91.96;100181.78;4959471;28;20042;-76
2023/08/19 03:28:25;;;;;;;21.42;14.10;;;;;;;21.42;91.01;100190.13;4955943;28;20054;-76
2023/08/19 03:30:52;;;;;;;17.80;13.13;;;;;;;21.55;90.03;100198.63;4941380;28;20073;-75
2023/08/19 03:33:18;;;;;;;16.58;13.15;;;;;;;21.71;89.31;100195.94;4939447;28;20061;-75
2023/08/19 03:36:11;;;;;;;18.27;14.25;;;;;;;21.97;88.41;100198.50;4898431;28;20044;-72
2023/08/19 03:38:37;;;;;;;17.92;13.38;;;;;;;22.01;87.59;100199.03;4898001;29;20067;-73
2023/08/19 03:41:04;;;;;;;19.17;14.15;;;;;;;22.13;86.79;100188.69;4898058;29;20055;-73
2023/08/19 03:43:34;;;;;;;18.77;13.25;;;;;;;22.31;85.92;100194.78;4905685;29;20373;-74
2023/08/19 03:48:53;;;;;;;18.35;13.50;;;;;;;22.67;84.50;100190.66;4917972;29;20171;-74
2023/08/19 03:51:19;;;;;;;15.82;12.73;;;;;;;22.81;82.66;100160.03;4916777;29;20410;-75
2023/08/19 03:53:46;;;;;;;16.55;13.30;;;;;;;22.93;81.72;100184.97;4901087;29;20518;-74
2023/08/19 03:56:14;;;;;;;18.40;13.20;;;;;;;23.02;80.51;100183.94;4916612;29;20047;-75
2023/08/19 03:58:39;;;;;;;15.95;12.35;;;;;;;23.07;79.75;100175.22;4917745;29;20398;-74
2023/08/19 04:01:07;;;;;;;15.20;13.02;;;;;;;23.12;79.18;100189.16;4900925;29;20062;-74
2023/08/19 04:03:35;;;;;;;13.95;12.55;;;;;;;23.14;78.31;100166.16;4916969;29;20046;-75
2023/08/19 04:06:01;;;;;;;15.55;12.93;;;;;;;23.11;78.09;100166.56;4917939;29;20050;-77
2023/08/19 04:08:29;;;;;;;17.02;11.98;;;;;;;23.11;78.09;100182.03;4918840;28;20051;-77
2023/08/19 04:11:07;;;;;;;15.02;12.20;;;;;;;23.21;77.38;100192.69;4902031;29;20059;-74
2023/08/19 04:13:34;;;;;;;15.57;12.80;;;;;;;23.22;77.31;100183.50;4897311;29;20056;-74
2023/08/19 04:16:04;;;;;;;14.73;12.15;;;;;;;23.27;76.60;100181.06;4897809;29;20426;-72
2023/08/19 04:18:34;;;;;;;14.95;12.43;;;;;;;23.30;76.31;100176.13;4897643;29;20506;-73
2023/08/19 04:21:04;;;;;;;14.18;11.75;;;;;;;23.41;75.89;100183.88;4898123;29;20047;-74
2023/08/19 04:23:30;;;;;;;15.98;12.43;;;;;;;23.50;75.46;100184.72;4902378;29;20510;-74
2023/08/19 04:25:57;;;;;;;13.60;11.80;;;;;;;23.64;75.06;100183.09;4884594;29;20413;-72
2023/08/19 04:28:23;;;;;;;16.20;12.20;;;;;;;23.81;74.36;100184.69;4896940;29;20052;-73
2023/08/19 04:30:53;;;;;;;15.48;11.60;;;;;;;24.01;74.05;100206.84;4897358;29;20383;-72
2023/08/19 04:33:22;;;;;;;14.90;11.18;;;;;;;24.20;72.82;100174.47;4881659;29;20182;-72
2023/08/19 04:35:48;;;;;;;13.70;10.82;;;;;;;24.41;72.11;100187.41;4951309;28;20043;-72
2023/08/19 04:38:39;;;;;;;19.27;11.55;;;;;;;24.67;71.36;100192.44;4951326;28;20057;-72
2023/08/19 04:41:06;;;;;;;16.90;12.00;;;;;;;24.88;70.56;100183.50;4940255;28;20054;-72
2023/08/19 04:43:43;;;;;;;14.65;11.65;;;;;;;25.08;69.86;100195.56;4955781;28;20057;-72
2023/08/19 04:46:35;;;;;;;14.18;11.35;;;;;;;25.33;68.76;100190.63;4938247;28;20056;-72
2023/08/19 04:49:05;;;;;;;15.38;12.60;;;;;;;25.46;68.34;100188.06;4938932;28;20058;-73
2023/08/19 04:51:35;;;;;;;13.85;10.48;;;;;;;25.66;67.50;100183.69;4955770;28;20061;-72
2023/08/19 04:54:04;;;;;;;14.15;12.25;;;;;;;25.90;66.86;100187.06;4960506;28;20412;-73
2023/08/19 04:56:30;;;;;;;15.15;12.45;;;;;;;26.01;66.15;100186.56;4948792;28;20051;-72
2023/08/19 04:59:00;;;;;;;13.90;11.90;;;;;;;26.02;65.37;100186.34;4957393;28;20050;-73
2023/08/19 05:01:25;;;;;;;14.00;11.38;;;;;;;26.05;65.26;100182.41;4926975;28;20420;-72
2023/08/19 05:03:51;;;;;;;15.73;11.50;;;;;;;26.18;65.54;100196.19;4959933;28;20409;-72
2023/08/19 05:06:19;;;;;;;13.23;11.30;;;;;;;26.36;64.88;100182.91;4965471;28;20038;-73
2023/08/19 05:08:48;;;;;;;14.77;10.82;;;;;;;26.63;64.08;100178.47;4961081;28;20053;-72
2023/08/19 05:11:14;;;;;;;18.42;11.85;;;;;;;27.00;63.34;100171.75;4946139;28;20057;-73
2023/08/19 05:13:42;;;;;;;14.32;10.63;;;;;;;27.29;62.23;100165.16;4939859;28;20070;-74
2023/08/19 05:16:13;;;;;;;14.48;11.75;;;;;;;27.53;61.75;100162.91;4936995;28;20055;-74
2023/08/19 05:21:32;;;;;;;15.40;10.80;;;;;;;28.00;60.58;100173.75;4936799;28;20062;-75
2023/08/19 05:24:00;;;;;;;15.73;11.40;;;;;;;28.21;60.07;100170.00;4940999;28;20044;-74
2023/08/19 05:26:25;;;;;;;18.27;11.20;;;;;;;28.39;59.06;100167.47;4938531;28;20046;-75
2023/08/19 05:28:53;;;;;;;18.23;12.30;;;;;;;28.49;58.48;100184.31;4938026;28;20564;-75
2023/08/19 05:31:22;;;;;;;16.92;12.00;;;;;;;28.66;57.80;100168.28;4948739;28;20513;-73
2023/08/19 05:33:47;;;;;;;14.25;11.77;;;;;;;28.75;56.99;100168.88;4938342;28;20066;-74
2023/08/19 05:39:07;;;;;;;14.20;10.75;;;;;;;29.55;55.62;100167.56;4954357;28;20046;-73
2023/08/19 05:41:36;;;;;;;13.55;11.00;;;;;;;29.93;54.34;100167.50;4957666;28;20055;-74
2023/08/19 05:44:03;;;;;;;14.77;11.07;;;;;;;30.42;53.38;100165.88;4959413;28;20057;-74
2023/08/19 05:46:29;;;;;;;14.10;10.77;;;;;;;30.98;51.88;100157.47;4941137;28;20042;-73
2023/08/19 05:49:00;;;;;;;13.20;11.20;;;;;;;31.31;50.41;100163.44;4959377;28;20496;-73
2023/08/19 05:51:27;;;;;;;13.35;11.13;;;;;;;31.85;49.03;100152.50;4957975;28;20058;-73
2023/08/19 05:56:59;;;;;;;17.85;11.38;;;;;;;32.62;46.90;100151.41;4957257;28;20061;-75
2023/08/19 05:59:26;;;;;;;14.40;10.90;;;;;;;33.11;46.07;100179.59;4957682;28;20042;-72
2023/08/19 06:04:49;;;;;;;15.32;11.38;;;;;;;33.58;44.68;100132.47;4957292;28;20042;-73
2023/08/19 06:07:19;;;;;;;17.77;10.95;;;;;;;33.93;43.73;100154.44;4957361;28;20034;-74
2023/08/19 06:09:45;;;;;;;13.85;10.10;;;;;;;34.28;42.93;100155.06;4957396;28;20496;-73
2023/08/19 06:12:10;;;;;;;11.57;9.95;;;;;;;34.75;42.16;100161.09;4957012;28;20133;-73
2023/08/19 06:14:42;;;;;;;12.95;10.98;;;;;;;35.27;41.10;100153.19;4958435;28;20042;-74
2023/08/19 06:17:33;;;;;;;15.25;10.90;;;;;;;35.77;41.09;100162.38;4958725;28;20440;-73
2023/08/19 06:19:58;;;;;;;11.88;10.18;;;;;;;35.85;39.74;100156.34;4958347;28;20045;-73
2023/08/19 06:22:49;;;;;;;18.65;12.57;;;;;;;36.51;39.87;100160.53;4957022;28;20054;-75
2023/08/19 06:25:16;;;;;;;24.80;13.63;;;;;;;36.82;38.08;100161.56;4940807;28;20050;-74
2023/08/19 06:27:41;;;;;;;21.70;14.73;;;;;;;37.33;37.23;100157.13;4957089;28;20038;-73
2023/08/19 06:30:07;;;;;;;37.08;16.67;;;;;;;37.92;36.46;100164.25;4941045;28;20535;-74
2023/08/19 06:32:32;;;;;;;17.92;11.60;;;;;;;38.40;35.50;100166.47;4956771;28;20050;-74
2023/08/19 06:34:59;;;;;;;14.43;12.88;;;;;;;38.80;34.98;100178.72;4955629;28;20054;-75
2023/08/19 06:37:39;;;;;;;12.98;11.68;;;;;;;39.27;33.21;100175.53;4956571;28;20057;-74
2023/08/19 06:40:11;;;;;;;15.52;11.95;;;;;;;39.87;32.45;100168.78;4956640;28;20038;-73
2023/08/19 06:42:39;;;;;;;17.60;12.40;;;;;;;40.38;31.68;100173.16;4956114;28;20046;-74
2023/08/19 06:45:08;;;;;;;12.23;10.40;;;;;;;40.05;31.92;100163.66;4957968;28;20042;-75
2023/08/19 06:47:37;;;;;;;16.23;11.85;;;;;;;40.03;31.41;100160.31;4956873;28;20829;-75
2023/08/19 06:50:03;;;;;;;12.98;10.80;;;;;;;40.01;31.87;100173.72;4956839;28;20050;-75
2023/08/19 06:52:30;;;;;;;13.70;11.68;;;;;;;39.51;32.54;100159.78;4956563;28;20054;-76
2023/08/19 06:54:58;;;;;;;15.25;12.02;;;;;;;39.61;32.66;100153.31;4957733;28;20038;-75
2023/08/19 06:57:29;;;;;;;14.10;12.77;;;;;;;40.13;31.35;100165.81;4958754;28;20054;-76
2023/08/19 07:00:10;;;;;;;15.50;12.27;;;;;;;40.25;30.40;100155.09;4957346;28;20042;-78
2023/08/19 07:02:37;;;;;;;14.43;12.63;;;;;;;39.22;32.03;100165.22;4940541;28;20117;-75
2023/08/19 07:05:15;;;;;;;15.40;12.15;;;;;;;38.50;32.84;100193.50;4940794;28;20421;-75
2023/08/19 07:07:50;;;;;;;14.40;12.90;;;;;;;37.25;34.70;100160.41;4957616;28;20057;-76
2023/08/19 07:10:20;;;;;;;15.93;12.65;;;;;;;36.19;36.44;100168.03;4957665;28;20496;-75
2023/08/19 07:12:47;;;;;;;19.30;13.43;;;;;;;35.24;38.23;100167.53;4956699;28;20049;-75
2023/08/19 07:21:34;;;;;;;18.95;14.45;;;;;;;33.15;42.29;100178.88;4938109;28;20043;-74
2023/08/19 07:24:03;;;;;;;18.50;15.88;;;;;;;32.99;42.89;100176.03;4937001;28;20074;-73
2023/08/19 07:26:30;;;;;;;22.17;13.82;;;;;;;33.33;42.27;100163.22;4937992;28;20042;-76
2023/08/19 07:28:58;;;;;;;18.45;12.65;;;;;;;33.81;41.35;100179.41;4956806;28;20077;-75
2023/08/19 07:31:27;;;;;;;18.23;12.25;;;;;;;33.70;41.37;100171.97;4957092;28;20528;-75
2023/08/19 07:33:53;;;;;;;17.08;12.95;;;;;;;33.39;42.15;100176.91;4955525;28;20092;-75
2023/08/19 07:36:22;;;;;;;18.40;13.85;;;;;;;32.94;42.96;100164.88;4939101;28;20142;-75
2023/08/19 07:38:49;;;;;;;18.95;13.45;;;;;;;32.36;44.10;100171.22;4955450;28;20046;-75
2023/08/19 07:41:18;;;;;;;16.13;13.25;;;;;;;32.19;45.19;100175.75;4939313;28;20050;-75
2023/08/19 07:43:44;;;;;;;14.95;12.07;;;;;;;32.55;44.70;100191.28;4956672;28;20054;-75
2023/08/19 07:46:10;;;;;;;16.10;11.90;;;;;;;33.57;43.45;100177.81;4937686;28;20039;-76
2023/08/19 07:49:00;;;;;;;14.55;13.05;;;;;;;35.22;40.89;100130.91;4936210;28;20057;-76
2023/08/19 07:51:26;;;;;;;18.50;14.57;;;;;;;35.52;38.83;100119.38;4952477;28;20398;-75
2023/08/19 07:53:52;;;;;;;15.05;12.90;;;;;;;34.99;39.03;100131.19;4936225;28;20410;-75
2023/08/19 07:56:18;;;;;;;16.20;14.30;;;;;;;33.93;40.44;100182.09;4923062;28;20070;-77
2023/08/19 08:01:59;;;;;;;14.45;12.45;;;;;;;33.69;42.35;100162.00;4937328;28;20042;-76
2023/08/19 08:04:28;;;;;;;17.15;12.40;;;;;;;35.40;40.12;100146.41;4935843;28;20047;-75
2023/08/19 08:06:54;;;;;;;14.10;12.00;;;;;;;36.60;38.24;100102.53;4937459;28;20046;-74
2023/08/19 08:09:21;;;;;;;18.30;12.13;;;;;;;38.09;35.27;100109.13;4937239;28;20527;-75
2023/08/19 08:11:49;;;;;;;18.60;12.18;;;;;;;39.93;32.67;100105.38;4937231;28;20042;-74
2023/08/19 08:14:14;;;;;;;19.50;13.40;;;;;;;41.74;29.62;100097.09;4942807;28;20396;-74
2023/08/19 08:16:40;;;;;;;16.42;12.15;;;;;;;42.79;28.47;100157.22;4954123;28;20512;-75
2023/08/19 08:19:08;;;;;;;13.23;11.77;;;;;;;42.52;28.03;100139.22;4956357;28;20401;-75
2023/08/19 08:21:38;;;;;;;15.05;12.23;;;;;;;41.83;28.43;100149.31;4955506;28;20057;-77
2023/08/19 08:24:03;;;;;;;15.55;12.88;;;;;;;41.13;29.31;100151.13;4939303;28;20057;-76
2023/08/19 08:26:29;;;;;;;14.02;12.00;;;;;;;40.80;29.79;100144.50;4955461;28;20042;-76
2023/08/19 08:28:59;;;;;;;14.38;12.73;;;;;;;41.19;29.05;100159.19;4955068;28;20042;-76
2023/08/19 08:31:25;;;;;;;16.38;12.23;;;;;;;42.04;27.80;100145.06;4955336;28;20046;-77
2023/08/19 08:33:52;;;;;;;13.90;12.60;;;;;;;43.29;26.49;100139.34;4955207;28;20113;-77
2023/08/19 08:36:19;;;;;;;14.07;12.43;;;;;;;43.85;25.53;100126.00;4955459;28;20042;-77
2023/08/19 08:38:44;;;;;;;14.13;12.32;;;;;;;44.36;24.81;100131.22;4956467;28;20042;-75
2023/08/19 08:41:12;;;;;;;14.40;11.82;;;;;;;43.81;25.03;100125.81;4956796;28;20069;-75
2023/08/19 08:43:46;;;;;;;12.30;11.00;;;;;;;44.09;24.68;100130.19;4955125;28;20053;-76
2023/08/19 08:46:14;;;;;;;20.83;13.50;;;;;;;44.58;23.70;100117.09;4955424;28;20693;-76
2023/08/19 08:48:45;;;;;;;13.60;12.23;;;;;;;45.01;23.64;100124.91;4956385;28;20042;-76
2023/08/19 08:51:22;;;;;;;14.15;12.93;;;;;;;45.52;23.09;100118.56;4956503;28;20049;-78
2023/08/19 08:54:41;;;;;;;15.25;13.82;;;;;;;47.25;22.10;100118.97;4940937;28;20508;-77
2023/08/19 08:57:32;;;;;;;16.48;14.65;;;;;;;48.04;21.01;100118.00;4943714;28;20509;-77
2023/08/19 09:00:00;;;;;;;15.63;14.32;;;;;;;48.51;20.42;100127.03;4960362;28;20046;-76
2023/08/19 09:02:28;;;;;;;16.38;14.90;;;;;;;48.88;19.72;100110.06;4962916;28;20396;-77
2023/08/19 09:05:24;;;;;;;14.90;13.48;;;;;;;49.16;18.88;100105.38;4958117;28;20054;-77
2023/08/19 09:07:54;;;;;;;16.05;14.68;;;;;;;49.41;18.50;100097.63;4960381;28;20061;-78
2023/08/19 09:10:23;;;;;;;;;;;;;;;51.37;18.84;100098.06;4961187;28;20069;-77
2023/08/19 09:12:53;;;;;;;17.45;16.25;;;;;;;50.60;18.05;100092.13;4961935;28;19918;-76
2023/08/19 09:15:20;;;;;;;18.63;17.00;;;;;;;50.61;17.74;100100.28;4947025;28;20042;-78
2023/08/19 09:17:50;;;;;;;21.77;19.90;;;;;;;50.71;17.55;100093.22;4965454;28;20042;-77
2023/08/19 09:20:17;;;;;;;20.00;18.42;;;;;;;50.22;17.72;100087.91;4973971;28;20062;-77
2023/08/19 09:22:44;;;;;;;17.95;16.50;;;;;;;48.75;18.66;100083.75;4953168;28;20556;-78
2023/08/19 09:25:14;;;;;;;18.08;16.52;;;;;;;46.76;20.44;100083.84;4952915;28;20045;-78
2023/08/19 09:27:46;;;;;;;15.23;13.60;;;;;;;44.91;21.44;100092.25;4950085;28;20395;-77
2023/08/19 09:30:17;;;;;;;;;;;;;;;45.03;21.69;100080.38;4947967;28;20066;-75
2023/08/19 09:32:45;;;;;;;13.05;10.60;;;;;;;41.87;23.57;100071.97;4959559;28;19917;-77
2023/08/19 09:35:15;;;;;;;12.00;9.50;;;;;;;40.23;25.49;100081.91;4960560;28;20050;-76
2023/08/19 09:37:48;;;;;;;11.75;9.68;;;;;;;38.90;26.53;100069.94;4972039;28;20050;-76
2023/08/19 09:40:39;;;;;;;10.85;9.77;;;;;;;38.87;27.88;100076.09;4965947;28;20500;-75
2023/08/19 09:43:04;;;;;;;10.43;9.38;;;;;;;39.51;26.74;100086.38;4952568;28;20050;-75
2023/08/19 09:45:32;;;;;;;11.77;9.23;;;;;;;40.80;24.67;100081.03;4970517;28;20042;-74
2023/08/19 09:47:58;;;;;;;12.05;10.80;;;;;;;41.83;23.79;100072.88;4955752;28;20042;-75
2023/08/19 09:50:24;;;;;;;12.32;9.73;;;;;;;42.26;23.70;100046.31;4979709;28;20062;-75
2023/08/19 09:52:54;;;;;;;11.48;10.00;;;;;;;42.58;23.05;100092.25;4977069;28;20042;-74
2023/08/19 09:55:26;;;;;;;12.70;10.30;;;;;;;42.86;22.80;100076.31;4954653;28;20058;-76
2023/08/19 09:57:56;;;;;;;13.30;11.07;;;;;;;43.74;22.33;100075.69;4962875;28;20042;-76
2023/08/19 10:00:22;;;;;;;11.98;10.65;;;;;;;43.51;22.62;100062.75;4944616;28;20054;-77
2023/08/19 10:02:48;;;;;;;12.38;10.23;;;;;;;42.34;23.48;100092.41;4942783;28;20509;-76
2023/08/19 10:05:39;;;;;;;11.35;10.35;;;;;;;41.46;24.88;100070.91;4949853;28;20050;-77
2023/08/19 10:08:08;;;;;;;11.10;10.00;;;;;;;39.54;27.04;100074.66;4924890;28;20050;-76
2023/08/19 10:11:00;;;;;;;11.85;10.45;;;;;;;38.29;28.71;100072.91;4941561;28;20046;-75
2023/08/19 10:13:27;;;;;;;13.18;10.25;;;;;;;37.52;29.03;100074.00;4963084;28;20049;-76
2023/08/19 10:15:58;;;;;;;10.85;9.75;;;;;;;37.28;29.68;100028.34;4944905;28;20416;-76
2023/08/19 10:18:30;;;;;;;;;;;;;;;37.88;28.99;100035.06;4940020;28;20058;-75
2023/08/19 10:21:04;;;;;;;10.18;9.18;;;;;;;36.97;29.73;100031.03;4944596;28;19941;-76
2023/08/19 10:23:31;;;;;;;11.85;9.75;;;;;;;36.93;30.55;100024.34;4943630;28;20408;-76
2023/08/19 10:26:23;;;;;;;14.43;9.75;;;;;;;36.52;31.88;100025.25;4942351;28;20502;-73
2023/08/19 10:29:03;;;;;;;13.05;11.85;;;;;;;36.30;32.08;100023.50;4923638;28;20047;-75
2023/08/19 10:31:30;;;;;;;9.95;8.95;;;;;;;35.60;32.37;100015.44;4959619;28;20047;-76
2023/08/19 10:33:56;;;;;;;14.32;10.05;;;;;;;35.00;32.70;100013.72;4942370;28;20066;-79
2023/08/19 10:36:28;;;;;;;11.93;9.60;;;;;;;34.48;33.40;100016.94;4946178;28;20165;-76
2023/08/19 10:39:00;;;;;;;11.77;10.57;;;;;;;33.95;34.43;100020.31;4941981;28;20047;-83
2023/08/19 10:41:37;;;;;;;15.05;9.48;;;;;;;33.49;35.44;100015.94;4944173;28;20400;-76
2023/08/19 10:44:12;;;;;;;12.63;10.10;;;;;;;33.06;35.95;100017.34;4951816;28;20069;-78
2023/08/19 10:46:45;;;;;;;10.50;8.88;;;;;;;32.58;36.60;100008.59;4945439;28;20409;-76
2023/08/19 10:49:14;;;;;;;11.65;8.60;;;;;;;32.10;37.28;100046.44;4947722;28;20047;-78
2023/08/19 10:52:05;;;;;;;10.10;9.10;;;;;;;31.71;37.45;100044.38;4954746;28;20509;-77
2023/08/19 10:54:40;;;;;;;12.30;9.90;;;;;;;31.47;37.53;100051.72;4939223;28;20050;-77
2023/08/19 10:57:14;;;;;;;13.10;10.07;;;;;;;31.30;38.36;100045.19;4942257;28;20054;-78
2023/08/19 10:59:53;;;;;;;12.85;10.10;;;;;;;31.22;39.26;100040.03;4948944;28;20054;-78
2023/08/19 11:02:22;;;;;;;;;;;;;;;31.51;37.62;100035.53;4930143;28;20042;-77
2023/08/19 11:05:24;;;;;;;17.13;10.02;;;;;;;31.23;38.48;100034.28;4942690;28;19921;-77
2023/08/19 11:08:15;;;;;;;14.00;10.07;;;;;;;30.82;39.43;100031.44;4957442;28;20054;-76
2023/08/19 11:11:31;;;;;;;14.18;9.13;;;;;;;30.70;39.29;100027.81;4946787;28;20042;-78
2023/08/19 11:13:57;;;;;;;16.52;10.18;;;;;;;30.63;40.17;100025.97;4959670;28;20057;-79
2023/08/19 11:16:27;;;;;;;14.77;10.10;;;;;;;30.59;40.48;100016.47;4957755;28;20049;-76
2023/08/19 11:18:53;;;;;;;13.77;10.43;;;;;;;30.57;40.79;100007.63;4957726;28;20050;-76
2023/08/19 11:21:19;;;;;;;13.50;11.63;;;;;;;30.46;40.73;100005.63;4957024;28;20046;-77
2023/08/19 11:23:48;;;;;;;13.48;10.48;;;;;;;30.33;40.59;100014.03;4959137;28;20057;-77
2023/08/19 11:26:13;;;;;;;12.75;10.13;;;;;;;30.15;40.62;100003.00;4958246;28;20516;-79
2023/08/19 11:29:29;;;;;;;12.93;10.05;;;;;;;30.17;41.10;100012.69;4952819;28;20047;-79
2023/08/19 11:31:59;;;;;;;12.60;9.85;;;;;;;29.85;42.19;100031.19;4970012;28;20046;-77
2023/08/19 11:34:30;;;;;;;10.85;9.48;;;;;;;29.67;42.10;100013.81;4937194;28;20069;-76
2023/08/19 11:36:56;;;;;;;10.52;9.30;;;;;;;29.49;42.30;100012.69;4971117;28;20046;-76
2023/08/19 11:39:22;;;;;;;10.65;8.85;;;;;;;29.41;42.71;100026.69;4954568;28;20053;-76
2023/08/19 11:41:53;;;;;;;10.85;8.65;;;;;;;29.39;42.23;100001.34;4946765;28;20058;-70
2023/08/19 11:44:23;;;;;;;13.27;8.80;;;;;;;29.47;43.13;100011.22;4946160;28;20046;-71
2023/08/19 11:46:57;;;;;;;11.07;8.70;;;;;;;29.63;42.54;99996.94;4947411;28;20042;-70
2023/08/19 11:49:50;;;;;;;12.27;9.07;;;;;;;29.92;42.49;99995.38;4959470;28;20413;-69
2023/08/19 11:52:25;;;;;;;11.95;9.10;;;;;;;29.86;42.31;100008.13;4942298;28;20058;-71
2023/08/19 11:55:01;;;;;;;11.45;10.15;;;;;;;29.85;41.45;100003.69;4945201;28;20062;-70
2023/08/19 11:57:36;;;;;;;12.20;10.10;;;;;;;29.69;41.57;100003.41;4947478;28;20057;-70
2023/08/19 12:00:15;;;;;;;13.60;10.75;;;;;;;29.60;41.18;100011.09;4939520;28;20055;-69